Weather at Karacabey Hara Airfield

Public forecast

Using degrees Celsius for public forecast. Weather courtesy of forecast.io.

Closest aviation weather report (METAR) to Karacabey Hara Airfield

Closest report is Bandırma Airport, 19.5 nm (36.2 km) WNW. Retrieved 2022/01/21 19:50 UTC (32 minutes ago):

LTBG 211950Z 32016KT 9999 -SHRA SCT010 BKN030 BKN090 03/02 Q1019 NOSIG RMK RWY18 33018KT

Closest aviation forecast (TAF) to Karacabey Hara Airfield

Closest forecast is İstanbul Atatürk Airport, 53.6 nm (99.2 km) NNE. Retrieved 2022/01/21 18:54 UTC (1 hour ago):

TAF COR TAF COR LTBA 211640Z 2118/2224 35008KT 7000 -SHSN SCT010 BKN020 TEMPO 2120/2124 2700 BKN006 BKN020 TEMPO 2202/2206 0900 SHSN BKN006 BKN020